createdAt,value
2018-12-15T00:00:40.452Z,-0.30
2018-12-15T00:03:08.272Z,-0.20
2018-12-15T00:05:35.756Z,-0.20
2018-12-15T00:08:03.232Z,-0.30
2018-12-15T00:10:30.691Z,-0.30
2018-12-15T00:12:58.184Z,-0.50
2018-12-15T00:15:25.640Z,-0.40
2018-12-15T00:17:53.132Z,-0.30
2018-12-15T00:20:20.881Z,-0.20
2018-12-15T00:22:48.644Z,-0.20
2018-12-15T00:25:16.147Z,-0.10
2018-12-15T00:27:43.697Z,-0.10
2018-12-15T00:30:11.248Z,-0.10
2018-12-15T00:32:38.704Z,-0.10
2018-12-15T00:35:06.226Z,-0.20
2018-12-15T00:37:33.782Z,-0.10
2018-12-15T00:40:01.246Z,-0.10
2018-12-15T00:42:32.385Z,-0.20
2018-12-15T00:45:00.160Z,-0.10
2018-12-15T00:47:27.636Z,-0.10
2018-12-15T00:49:55.120Z,-0.10
2018-12-15T00:52:22.577Z,-0.10
2018-12-15T00:54:50.064Z,-0.10
2018-12-15T00:57:17.533Z,-0.10
2018-12-15T00:59:44.988Z,0.00
2018-12-15T01:02:12.474Z,-0.10
2018-12-15T01:04:39.944Z,-0.10
2018-12-15T01:07:07.680Z,-0.10
2018-12-15T01:09:35.146Z,-0.20
2018-12-15T01:12:02.608Z,-0.20
2018-12-15T01:14:30.085Z,-0.20
2018-12-15T01:16:57.550Z,-0.20
2018-12-15T01:19:25.026Z,-0.20
2018-12-15T01:21:52.492Z,-0.20
2018-12-15T01:24:20.032Z,-0.20
2018-12-15T01:26:47.520Z,-0.10
2018-12-15T01:29:15.304Z,-0.10
2018-12-15T01:31:42.788Z,-0.10
2018-12-15T01:34:11.353Z,-0.10
2018-12-15T01:36:38.848Z,-0.10
2018-12-15T01:39:06.760Z,0.00
2018-12-15T01:41:34.362Z,0.00
2018-12-15T01:44:01.856Z,0.00
2018-12-15T01:46:29.308Z,0.00
2018-12-15T01:48:56.797Z,-0.10
2018-12-15T01:51:24.267Z,-0.10
2018-12-15T01:53:51.717Z,0.00
2018-12-15T01:56:19.196Z,-0.10
2018-12-15T01:58:46.672Z,-0.20
2018-12-15T02:01:14.152Z,-0.10
2018-12-15T02:03:41.614Z,-0.20
2018-12-15T02:06:09.084Z,-0.10
2018-12-15T02:08:36.559Z,-0.20
2018-12-15T02:11:04.031Z,-0.10
2018-12-15T02:13:31.527Z,-0.20
2018-12-15T02:16:02.015Z,-0.10
2018-12-15T02:18:30.346Z,-0.20
2018-12-15T02:20:58.175Z,-0.30
2018-12-15T02:23:25.907Z,-0.20
2018-12-15T02:25:53.367Z,-0.30
2018-12-15T02:28:20.860Z,-0.30
2018-12-15T02:30:48.321Z,-0.30
2018-12-15T02:33:15.782Z,-0.40
2018-12-15T02:35:43.272Z,-0.40
2018-12-15T02:38:11.661Z,-0.40
2018-12-15T02:40:39.118Z,-0.30
2018-12-15T02:43:06.600Z,-0.30
2018-12-15T02:45:34.260Z,-0.20
2018-12-15T02:48:01.744Z,-0.20
2018-12-15T02:50:29.212Z,-0.20
2018-12-15T02:52:57.483Z,-0.30
2018-12-15T02:55:24.952Z,-0.30
2018-12-15T02:57:52.668Z,-0.20
2018-12-15T03:00:20.531Z,-0.10
2018-12-15T03:02:48.025Z,-0.20
2018-12-15T03:05:15.491Z,-0.10
2018-12-15T03:07:43.093Z,-0.10
2018-12-15T03:10:10.674Z,-0.10
2018-12-15T03:12:38.429Z,-0.10
2018-12-15T03:15:06.012Z,-0.10
2018-12-15T03:17:33.747Z,-0.10
2018-12-15T03:20:01.384Z,-0.10
2018-12-15T03:22:28.848Z,-0.10
2018-12-15T03:24:57.751Z,-0.10
2018-12-15T03:27:26.597Z,-0.10
2018-12-15T03:29:55.185Z,-0.20
2018-12-15T03:32:23.837Z,-0.10
2018-12-15T03:34:51.760Z,-0.10
2018-12-15T03:37:19.212Z,-0.10
2018-12-15T03:39:46.685Z,-0.10
2018-12-15T03:42:14.145Z,-0.10
2018-12-15T03:44:41.612Z,-0.10
2018-12-15T03:47:09.065Z,0.00
2018-12-15T03:49:36.557Z,0.00
2018-12-15T03:52:04.016Z,-0.10
2018-12-15T03:54:31.752Z,-0.10
2018-12-15T03:56:59.213Z,0.00
2018-12-15T03:59:27.295Z,0.00
2018-12-15T04:01:54.763Z,-0.10
2018-12-15T04:04:22.240Z,-0.10
2018-12-15T04:06:49.774Z,-0.10
2018-12-15T04:09:17.240Z,-0.20
2018-12-15T04:11:44.700Z,-0.10
2018-12-15T04:14:12.189Z,-0.10
2018-12-15T04:16:39.662Z,0.00
2018-12-15T04:19:07.154Z,0.00
2018-12-15T04:21:34.630Z,0.10
2018-12-15T04:24:02.099Z,0.10
2018-12-15T04:26:29.551Z,0.00
2018-12-15T04:28:57.045Z,0.00
2018-12-15T04:31:24.493Z,0.00
2018-12-15T04:33:51.965Z,0.00
2018-12-15T04:36:19.436Z,-0.10
2018-12-15T04:38:46.909Z,-0.10
2018-12-15T04:41:14.377Z,-0.10
2018-12-15T04:43:41.872Z,-0.10
2018-12-15T04:46:11.096Z,-0.20
2018-12-15T04:48:38.557Z,-0.10
2018-12-15T04:51:06.045Z,-0.10
2018-12-15T04:53:33.504Z,-0.10
2018-12-15T04:56:00.981Z,-0.20
2018-12-15T04:58:28.444Z,-0.10
2018-12-15T05:00:55.985Z,-0.10
2018-12-15T05:03:23.440Z,-0.20
2018-12-15T05:05:52.661Z,-0.30
2018-12-15T05:08:20.108Z,-0.30
2018-12-15T05:10:47.590Z,-0.40
2018-12-15T05:13:15.055Z,-0.40
2018-12-15T05:15:42.836Z,-0.40
2018-12-15T05:18:10.304Z,-0.40
2018-12-15T05:20:37.798Z,-0.30
2018-12-15T05:23:05.516Z,-0.40
2018-12-15T05:25:33.055Z,-0.40
2018-12-15T05:28:00.555Z,-0.40
2018-12-15T05:30:28.029Z,-0.40
2018-12-15T05:32:55.516Z,-0.40
2018-12-15T05:35:23.056Z,-0.40
2018-12-15T05:37:50.566Z,-0.40
2018-12-15T05:40:18.104Z,-0.40
2018-12-15T05:42:45.888Z,-0.40
2018-12-15T05:45:13.386Z,-0.50
2018-12-15T05:47:40.848Z,-0.60
2018-12-15T05:50:08.325Z,-0.70
2018-12-15T05:52:35.784Z,-0.60
2018-12-15T05:55:03.608Z,-0.50
2018-12-15T05:57:31.344Z,-0.50
2018-12-15T05:59:58.820Z,-0.50
2018-12-15T06:02:26.757Z,-0.50
2018-12-15T06:04:55.382Z,-0.40
2018-12-15T06:07:22.861Z,-0.40
2018-12-15T06:09:50.336Z,-0.50
2018-12-15T06:12:17.801Z,-0.40
2018-12-15T06:14:45.276Z,-0.40
2018-12-15T06:17:12.736Z,-0.40
2018-12-15T06:19:40.504Z,-0.30
2018-12-15T06:22:07.975Z,-0.40
2018-12-15T06:24:35.728Z,-0.30
2018-12-15T06:27:03.237Z,-0.30
2018-12-15T06:29:30.711Z,-0.30
2018-12-15T06:31:58.171Z,-0.30
2018-12-15T06:34:25.639Z,-0.30
2018-12-15T06:36:53.102Z,-0.40
2018-12-15T06:39:20.586Z,-0.40
2018-12-15T06:41:48.052Z,-0.30
2018-12-15T06:44:15.520Z,-0.30
2018-12-15T06:46:42.980Z,-0.50
2018-12-15T06:49:10.440Z,-0.60
2018-12-15T06:51:37.924Z,-0.60
2018-12-15T06:54:05.383Z,-0.60
2018-12-15T06:56:32.864Z,-0.60
2018-12-15T06:59:00.320Z,-0.70
2018-12-15T07:01:27.816Z,-0.60
2018-12-15T07:03:55.285Z,-0.60
2018-12-15T07:06:22.762Z,-0.60
2018-12-15T07:08:50.241Z,-0.40
2018-12-15T07:11:17.716Z,-0.50
2018-12-15T07:13:45.190Z,-0.50
2018-12-15T07:16:12.681Z,-0.30
2018-12-15T07:18:44.777Z,-0.40
2018-12-15T07:21:09.637Z,-0.50
2018-12-15T07:23:37.132Z,-0.40
2018-12-15T07:26:04.594Z,-0.50
2018-12-15T07:28:32.082Z,-0.40
2018-12-15T07:30:59.564Z,-0.50
2018-12-15T07:33:27.052Z,-0.50
2018-12-15T07:35:54.512Z,-0.40
2018-12-15T07:38:22.320Z,-0.40
2018-12-15T07:40:49.801Z,-0.30
2018-12-15T07:43:17.260Z,-0.40
2018-12-15T07:45:45.080Z,-0.40
2018-12-15T07:48:12.556Z,-0.40
2018-12-15T07:50:40.300Z,-0.40
2018-12-15T07:53:07.769Z,-0.40
2018-12-15T07:55:35.243Z,-0.30
2018-12-15T07:58:02.729Z,-0.30
2018-12-15T08:00:30.205Z,-0.20
2018-12-15T08:02:57.680Z,-0.10
2018-12-15T08:05:25.180Z,-0.20
2018-12-15T08:07:52.728Z,-0.20
2018-12-15T08:10:23.488Z,-0.30
2018-12-15T08:13:02.528Z,-0.10
2018-12-15T08:15:30.089Z,-0.30
2018-12-15T08:17:57.838Z,-0.40
2018-12-15T08:20:25.332Z,-0.30
2018-12-15T08:22:53.024Z,-0.40
2018-12-15T08:25:20.506Z,-0.30
2018-12-15T08:27:48.170Z,-0.20
2018-12-15T08:30:15.688Z,-0.20
2018-12-15T08:32:43.195Z,-0.30
2018-12-15T08:35:10.954Z,-0.40
2018-12-15T08:37:38.540Z,-0.20
2018-12-15T08:40:06.073Z,-0.20
2018-12-15T08:42:33.561Z,-0.20
2018-12-15T08:45:01.027Z,-0.30
2018-12-15T08:47:28.538Z,-0.30
2018-12-15T08:49:56.012Z,-0.30
2018-12-15T08:52:23.484Z,-0.30
2018-12-15T08:54:51.052Z,-0.30
2018-12-15T08:57:26.157Z,-0.20
2018-12-15T08:59:53.644Z,-0.30
2018-12-15T09:02:21.200Z,-0.30
2018-12-15T09:04:48.936Z,-0.20
2018-12-15T09:07:16.662Z,-0.30
2018-12-15T09:09:44.305Z,-0.20
2018-12-15T09:12:11.768Z,-0.30
2018-12-15T09:14:39.253Z,-0.20
2018-12-15T09:17:06.991Z,-0.20
2018-12-15T09:19:34.481Z,-0.20
2018-12-15T09:22:01.946Z,-0.20
2018-12-15T09:24:29.424Z,-0.10
2018-12-15T09:26:56.893Z,-0.20
2018-12-15T09:29:24.376Z,-0.10
2018-12-15T09:31:51.848Z,-0.20
2018-12-15T09:34:19.339Z,-0.10
2018-12-15T09:36:46.798Z,0.00
2018-12-15T09:39:14.324Z,0.00
2018-12-15T09:41:41.822Z,-0.10
2018-12-15T09:44:09.284Z,0.00
2018-12-15T09:46:36.780Z,0.00
2018-12-15T09:49:04.254Z,0.10
2018-12-15T09:51:32.101Z,0.10
2018-12-15T09:53:59.564Z,0.10
2018-12-15T09:56:27.225Z,0.00
2018-12-15T09:58:54.696Z,0.00
2018-12-15T10:01:22.191Z,0.10
2018-12-15T10:03:49.658Z,0.10
2018-12-15T10:06:17.272Z,0.00
2018-12-15T10:08:44.917Z,0.00
2018-12-15T10:11:12.371Z,0.00
2018-12-15T10:13:39.868Z,0.10
2018-12-15T10:16:07.340Z,-0.10
2018-12-15T10:18:34.805Z,0.00
2018-12-15T10:21:02.361Z,0.00
2018-12-15T10:23:29.884Z,0.00
2018-12-15T10:25:57.372Z,0.00
2018-12-15T10:28:24.828Z,0.10
2018-12-15T10:30:58.031Z,0.10
2018-12-15T10:33:25.503Z,0.00
2018-12-15T10:35:53.173Z,-0.10
2018-12-15T10:38:20.640Z,-0.10
2018-12-15T10:40:48.128Z,-0.10
2018-12-15T10:43:15.588Z,0.10
2018-12-15T10:45:43.064Z,0.00
2018-12-15T10:48:10.544Z,0.00
2018-12-15T10:50:38.017Z,0.10
2018-12-15T10:53:05.793Z,0.00
2018-12-15T10:55:33.303Z,-0.10
2018-12-15T10:58:01.013Z,0.10
2018-12-15T11:00:34.513Z,0.00
2018-12-15T11:03:02.157Z,-0.10
2018-12-15T11:05:29.708Z,0.00
2018-12-15T11:07:57.172Z,0.00
2018-12-15T11:10:24.696Z,0.10
2018-12-15T11:12:52.229Z,-0.10
2018-12-15T11:15:19.680Z,-0.10
2018-12-15T11:17:47.164Z,0.00
2018-12-15T11:20:14.624Z,0.00
2018-12-15T11:22:42.088Z,0.00
2018-12-15T11:25:09.632Z,0.10
2018-12-15T11:27:37.110Z,0.10
2018-12-15T11:30:05.404Z,0.20
2018-12-15T11:32:32.868Z,0.10
2018-12-15T11:35:00.370Z,0.10
2018-12-15T11:37:28.104Z,0.00
2018-12-15T11:39:55.557Z,0.00
2018-12-15T11:42:23.711Z,0.00
2018-12-15T11:44:51.167Z,-0.10
2018-12-15T11:47:18.636Z,0.10
2018-12-15T11:49:46.193Z,0.00
2018-12-15T11:52:13.728Z,0.10
2018-12-15T11:54:41.183Z,0.00
2018-12-15T11:57:08.691Z,0.00
2018-12-15T11:59:36.145Z,0.10
2018-12-15T12:02:03.672Z,0.10
2018-12-15T12:04:31.170Z,0.10
2018-12-15T12:06:58.648Z,0.10
2018-12-15T12:09:26.112Z,0.10
2018-12-15T12:11:53.639Z,0.30
2018-12-15T12:14:21.105Z,0.30
2018-12-15T12:16:48.579Z,0.30
2018-12-15T12:19:16.044Z,0.20
2018-12-15T12:21:43.525Z,0.00
2018-12-15T12:24:11.040Z,0.10
2018-12-15T12:26:38.520Z,0.10
2018-12-15T12:29:06.233Z,0.20
2018-12-15T12:31:34.081Z,0.20
2018-12-15T12:34:01.576Z,0.20
2018-12-15T12:36:29.041Z,0.20
2018-12-15T12:38:56.500Z,0.20
2018-12-15T12:41:23.976Z,0.10
2018-12-15T12:43:51.432Z,0.10
2018-12-15T12:46:18.899Z,0.20
2018-12-15T12:48:46.399Z,0.20
2018-12-15T12:51:13.857Z,0.10
2018-12-15T12:53:41.620Z,0.10
2018-12-15T12:56:09.080Z,0.20
2018-12-15T12:58:36.834Z,0.30
2018-12-15T13:01:04.564Z,0.30
2018-12-15T13:03:32.025Z,0.40
2018-12-15T13:05:59.506Z,0.40
2018-12-15T13:08:27.001Z,0.10
2018-12-15T13:10:54.456Z,0.10
2018-12-15T13:13:21.928Z,0.10
2018-12-15T13:15:49.390Z,0.10
2018-12-15T13:18:16.884Z,0.10
2018-12-15T13:20:44.356Z,0.20
2018-12-15T13:23:11.836Z,0.30
2018-12-15T13:25:39.292Z,0.40
2018-12-15T13:28:07.043Z,0.30
2018-12-15T13:30:34.876Z,0.30
2018-12-15T13:33:04.816Z,0.30
2018-12-15T13:35:32.300Z,0.40
2018-12-15T13:37:59.776Z,0.20
2018-12-15T13:40:27.304Z,0.30
2018-12-15T13:42:54.785Z,0.20
2018-12-15T13:45:22.312Z,0.20
2018-12-15T13:47:50.076Z,0.20
2018-12-15T13:50:17.555Z,0.20
2018-12-15T13:52:51.005Z,0.30
2018-12-15T13:55:18.472Z,0.20
2018-12-15T13:57:45.933Z,0.30
2018-12-15T14:00:13.422Z,0.20
2018-12-15T14:02:40.880Z,0.10
2018-12-15T14:05:08.508Z,0.10
2018-12-15T14:07:35.968Z,0.00
2018-12-15T14:10:05.155Z,0.10
2018-12-15T14:12:33.424Z,0.10
2018-12-15T14:15:00.976Z,0.00
2018-12-15T14:17:29.508Z,0.00
2018-12-15T14:19:57.724Z,0.00
2018-12-15T14:22:25.214Z,0.10
2018-12-15T14:24:52.686Z,0.10
2018-12-15T14:27:20.225Z,0.10
2018-12-15T14:29:47.692Z,0.10
2018-12-15T14:32:15.204Z,0.20
2018-12-15T14:34:42.665Z,0.10
2018-12-15T14:37:10.149Z,0.10
2018-12-15T14:39:37.604Z,0.00
2018-12-15T14:42:05.081Z,-0.10
2018-12-15T14:44:32.788Z,0.00
2018-12-15T14:47:00.285Z,0.00
2018-12-15T14:49:27.752Z,0.00
2018-12-15T14:51:55.421Z,0.10
2018-12-15T14:54:22.907Z,-0.10
2018-12-15T14:56:50.364Z,0.10
2018-12-15T14:59:17.824Z,0.00
2018-12-15T15:01:45.368Z,0.00
2018-12-15T15:04:12.832Z,-0.10
2018-12-15T15:06:40.311Z,0.00
2018-12-15T15:09:08.524Z,-0.20
2018-12-15T15:11:36.012Z,-0.10
2018-12-15T15:14:03.860Z,0.00
2018-12-15T15:16:31.332Z,-0.10
2018-12-15T15:18:58.815Z,-0.20
2018-12-15T15:21:26.536Z,0.00
2018-12-15T15:23:54.008Z,0.00
2018-12-15T15:26:21.518Z,0.00
2018-12-15T15:28:49.012Z,-0.10
2018-12-15T15:31:16.767Z,0.00
2018-12-15T15:33:44.309Z,-0.10
2018-12-15T15:36:12.099Z,0.00
2018-12-15T15:38:39.575Z,-0.10
2018-12-15T15:41:07.053Z,-0.10
2018-12-15T15:43:34.631Z,-0.10
2018-12-15T15:46:02.173Z,-0.20
2018-12-15T15:48:29.712Z,0.00
2018-12-15T15:50:57.199Z,-0.10
2018-12-15T15:53:24.712Z,0.00
2018-12-15T15:55:52.216Z,-0.10
2018-12-15T15:58:20.576Z,-0.20
2018-12-15T16:00:48.059Z,-0.20
2018-12-15T16:03:15.548Z,-0.20
2018-12-15T16:05:43.052Z,-0.30
2018-12-15T16:08:10.563Z,-0.20
2018-12-15T16:10:38.107Z,-0.10
2018-12-15T16:13:06.004Z,-0.20
2018-12-15T16:15:33.516Z,-0.20
2018-12-15T16:18:01.076Z,-0.30
2018-12-15T16:20:28.552Z,-0.10
2018-12-15T16:22:56.013Z,-0.20
2018-12-15T16:25:23.800Z,-0.20
2018-12-15T16:27:51.395Z,-0.20
2018-12-15T16:30:19.069Z,-0.20
2018-12-15T16:32:46.588Z,-0.20
2018-12-15T16:35:14.080Z,-0.20
2018-12-15T16:37:41.549Z,-0.20
2018-12-15T16:40:09.496Z,-0.20
2018-12-15T16:42:37.051Z,-0.10
2018-12-15T16:45:06.720Z,-0.20
2018-12-15T16:47:34.200Z,0.00
2018-12-15T16:50:02.204Z,-0.20
2018-12-15T16:52:30.072Z,-0.10
2018-12-15T16:54:57.956Z,-0.10
2018-12-15T16:57:25.768Z,-0.20
2018-12-15T16:59:53.276Z,-0.10
2018-12-15T17:02:20.966Z,-0.20
2018-12-15T17:04:48.841Z,-0.20
2018-12-15T17:07:16.321Z,-0.30
2018-12-15T17:09:44.068Z,-0.30
2018-12-15T17:12:11.546Z,-0.10
2018-12-15T17:14:39.369Z,-0.20
2018-12-15T17:17:06.832Z,-0.20
2018-12-15T17:19:34.365Z,-0.30
2018-12-15T17:22:02.289Z,-0.20
2018-12-15T17:24:29.838Z,-0.30
2018-12-15T17:26:57.302Z,-0.30
2018-12-15T17:29:24.784Z,-0.30
2018-12-15T17:31:52.287Z,-0.20
2018-12-15T17:34:20.063Z,-0.30
2018-12-15T17:36:48.196Z,-0.20
2018-12-15T17:39:15.712Z,-0.20
2018-12-15T17:41:43.203Z,-0.40
2018-12-15T17:44:10.676Z,-0.50
2018-12-15T17:46:38.149Z,-0.50
2018-12-15T17:49:05.645Z,-0.60
2018-12-15T17:51:33.102Z,-0.60
2018-12-15T17:54:00.839Z,-0.60
2018-12-15T17:56:28.321Z,-0.60
2018-12-15T17:58:56.444Z,-0.60
2018-12-15T18:01:23.932Z,-0.60
2018-12-15T18:03:51.484Z,-0.70
2018-12-15T18:06:19.036Z,-0.70
2018-12-15T18:08:46.524Z,-0.80
2018-12-15T18:11:13.990Z,-0.70
2018-12-15T18:13:41.487Z,-0.80
2018-12-15T18:16:08.976Z,-0.80
2018-12-15T18:18:36.852Z,-0.90
2018-12-15T18:21:09.830Z,-0.90
2018-12-15T18:23:33.961Z,-0.80
2018-12-15T18:26:01.450Z,-1.00
2018-12-15T18:28:28.925Z,-0.90
2018-12-15T18:30:56.438Z,-1.00
2018-12-15T18:33:24.020Z,-1.00
2018-12-15T18:35:51.556Z,-1.00
2018-12-15T18:38:19.012Z,-0.90
2018-12-15T18:40:46.512Z,-1.10
2018-12-15T18:43:13.984Z,-1.00
2018-12-15T18:45:42.429Z,-1.10
2018-12-15T18:48:09.901Z,-1.00
2018-12-15T18:50:37.434Z,-1.10
2018-12-15T18:53:04.891Z,-1.20
2018-12-15T18:55:32.516Z,-1.30
2018-12-15T18:57:59.982Z,-1.30
2018-12-15T19:00:27.501Z,-1.30
2018-12-15T19:02:54.983Z,-1.30
2018-12-15T19:05:22.556Z,-1.40
2018-12-15T19:07:50.025Z,-1.40
2018-12-15T19:10:17.504Z,-1.50
2018-12-15T19:12:45.097Z,-1.50
2018-12-15T19:15:12.647Z,-1.50
2018-12-15T19:17:41.080Z,-1.60
2018-12-15T19:20:08.722Z,-1.60
2018-12-15T19:22:36.201Z,-1.70
2018-12-15T19:25:04.143Z,-1.70
2018-12-15T19:27:31.985Z,-1.80
2018-12-15T19:29:59.733Z,-1.70
2018-12-15T19:32:27.204Z,-1.80
2018-12-15T19:34:54.708Z,-1.70
2018-12-15T19:37:22.208Z,-1.80
2018-12-15T19:39:49.669Z,-1.80
2018-12-15T19:42:17.188Z,-2.00
2018-12-15T19:44:44.723Z,-1.90
2018-12-15T19:47:12.220Z,-2.00
2018-12-15T19:49:39.728Z,-2.10
2018-12-15T19:52:07.201Z,-2.00
2018-12-15T19:54:34.684Z,-2.10
2018-12-15T19:57:02.376Z,-2.10
2018-12-15T19:59:31.084Z,-2.20
2018-12-15T20:01:58.553Z,-2.20
2018-12-15T20:04:26.097Z,-2.20
2018-12-15T20:06:53.600Z,-2.10
2018-12-15T20:09:21.060Z,-2.20
2018-12-15T20:11:48.621Z,-2.10
2018-12-15T20:14:16.124Z,-2.10
2018-12-15T20:16:43.628Z,-2.10
2018-12-15T20:19:11.113Z,-2.10
2018-12-15T20:21:41.780Z,-2.20
2018-12-15T20:24:10.248Z,-2.30
2018-12-15T20:26:38.072Z,-2.20
2018-12-15T20:29:05.572Z,-2.30
2018-12-15T20:31:33.053Z,-2.20
2018-12-15T20:34:00.792Z,-2.20
2018-12-15T20:36:28.273Z,-2.20
2018-12-15T20:38:56.530Z,-2.30
2018-12-15T20:41:24.673Z,-2.30
2018-12-15T20:43:52.180Z,-2.40
2018-12-15T20:46:19.676Z,-2.40
2018-12-15T20:48:47.381Z,-2.40
2018-12-15T20:51:15.241Z,-2.40
2018-12-15T20:53:42.729Z,-2.60
2018-12-15T20:56:10.459Z,-2.50
2018-12-15T20:58:38.018Z,-2.60
2018-12-15T21:01:05.677Z,-2.50
2018-12-15T21:03:33.899Z,-2.60
2018-12-15T21:06:01.388Z,-2.70
2018-12-15T21:08:28.880Z,-2.60
2018-12-15T21:10:56.385Z,-2.50
2018-12-15T21:13:23.864Z,-2.50
2018-12-15T21:15:53.304Z,-2.50
2018-12-15T21:18:20.785Z,-2.50
2018-12-15T21:20:48.269Z,-2.50
2018-12-15T21:23:15.968Z,-2.60
2018-12-15T21:25:43.981Z,-2.70
2018-12-15T21:28:11.804Z,-2.70
2018-12-15T21:30:39.568Z,-2.60
2018-12-15T21:33:07.260Z,-2.60
2018-12-15T21:35:34.838Z,-2.60
2018-12-15T21:38:02.330Z,-2.50
2018-12-15T21:40:29.794Z,-2.60
2018-12-15T21:42:57.280Z,-2.60
2018-12-15T21:45:24.752Z,-2.60
2018-12-15T21:47:57.536Z,-2.60
2018-12-15T21:50:21.820Z,-2.60
2018-12-15T21:52:49.289Z,-2.60
2018-12-15T21:55:17.003Z,-2.70
2018-12-15T21:57:44.471Z,-2.70
2018-12-15T22:00:12.076Z,-2.70
2018-12-15T22:02:39.536Z,-2.80
2018-12-15T22:05:07.340Z,-2.70
2018-12-15T22:07:34.796Z,-2.90
2018-12-15T22:10:02.432Z,-2.90
2018-12-15T22:12:29.911Z,-2.90
2018-12-15T22:14:57.388Z,-3.00
2018-12-15T22:17:24.861Z,-3.00
2018-12-15T22:19:52.334Z,-3.10
2018-12-15T22:22:19.800Z,-3.10
2018-12-15T22:24:47.447Z,-3.00
2018-12-15T22:27:14.932Z,-3.00
2018-12-15T22:29:42.391Z,-3.00
2018-12-15T22:32:09.993Z,-3.00
2018-12-15T22:34:37.683Z,-3.00
2018-12-15T22:37:05.223Z,-3.00
2018-12-15T22:39:32.688Z,-3.00
2018-12-15T22:42:00.165Z,-3.00
2018-12-15T22:44:27.626Z,-3.00
2018-12-15T22:46:55.103Z,-3.00
2018-12-15T22:49:23.017Z,-3.00
2018-12-15T22:51:50.785Z,-3.00
2018-12-15T22:54:18.252Z,-3.00
2018-12-15T22:56:45.980Z,-2.90
2018-12-15T22:59:13.444Z,-2.90
2018-12-15T23:01:45.931Z,-2.90
2018-12-15T23:04:14.560Z,-2.90
2018-12-15T23:06:42.121Z,-2.80
2018-12-15T23:09:09.576Z,-2.80
2018-12-15T23:11:37.380Z,-2.80
2018-12-15T23:14:04.919Z,-2.80
2018-12-15T23:16:32.408Z,-2.80
2018-12-15T23:18:59.905Z,-2.70
2018-12-15T23:21:27.377Z,-2.70
2018-12-15T23:23:54.836Z,-2.70
2018-12-15T23:26:22.333Z,-2.60
2018-12-15T23:28:49.797Z,-2.60
2018-12-15T23:31:17.628Z,-2.60
2018-12-15T23:33:45.093Z,-2.60
2018-12-15T23:36:12.636Z,-2.60
2018-12-15T23:38:40.099Z,-2.60
2018-12-15T23:41:07.577Z,-2.50
2018-12-15T23:43:35.059Z,-2.50
2018-12-15T23:46:02.551Z,-2.50
2018-12-15T23:48:30.004Z,-2.50
2018-12-15T23:50:57.486Z,-2.50
2018-12-15T23:53:24.985Z,-2.50
2018-12-15T23:55:52.461Z,-2.50
2018-12-15T23:58:20.185Z,-2.50
